Time;durP1;ratioP1;P1;durP2;ratioP2;P2;SDS_P1;SDS_P2;PMS_P1;PMS_P2;Temp;Humidity;BMP_temperature;BMP_pressure;BME280_temperature;BME280_humidity;BME280_pressure;Samples;Min_cycle;Max_cycle;Signal;HPM_P1;HPM_P2
2021/09/27 00:02:29;;;;;;;53.53;50.03;;;17.10;99.90;;;;;;4345455;33;20195;-67
2021/09/27 00:04:58;;;;;;;55.47;52.20;;;17.10;99.90;;;;;;4345486;33;20276;-66
2021/09/27 00:07:28;;;;;;;62.57;58.97;;;17.10;99.90;;;;;;4345195;33;20160;-67
2021/09/27 00:09:55;;;;;;;57.37;54.07;;;17.00;99.90;;;;;;4345989;33;20269;-67
2021/09/27 00:12:29;;;;;;;55.97;52.73;;;17.00;99.90;;;;;;4346785;33;20483;-67
2021/09/27 00:15:01;;;;;;;65.60;61.70;;;16.90;99.90;;;;;;4346036;33;20577;-69
2021/09/27 00:20:13;;;;;;;64.10;60.33;;;16.90;99.90;;;;;;4347322;33;20227;-67
2021/09/27 00:22:40;;;;;;;62.33;58.80;;;16.80;99.90;;;;;;4348812;32;20161;-67
2021/09/27 00:25:15;;;;;;;68.13;64.07;;;16.80;99.90;;;;;;4347732;33;20157;-68
2021/09/27 00:27:42;;;;;;;64.53;60.17;;;16.70;99.90;;;;;;4347955;33;20156;-66
2021/09/27 00:30:12;;;;;;;75.80;71.33;;;16.70;99.90;;;;;;4347845;33;20161;-69
2021/09/27 00:32:45;;;;;;;83.07;78.47;;;16.60;99.90;;;;;;4348194;33;20169;-67
2021/09/27 00:35:19;;;;;;;68.00;63.90;;;16.60;99.90;;;;;;4349662;33;20550;-68
2021/09/27 00:37:49;;;;;;;67.53;63.63;;;16.70;99.90;;;;;;4347762;33;20168;-68
2021/09/27 00:40:41;;;;;;;71.13;67.20;;;16.70;99.90;;;;;;4347807;33;20590;-67
2021/09/27 00:43:08;;;;;;;82.63;77.90;;;16.60;99.90;;;;;;4341350;33;20180;-67
2021/09/27 00:45:46;;;;;;;64.53;60.70;;;16.50;99.90;;;;;;4347909;33;20175;-67
2021/09/27 00:48:16;;;;;;;78.57;73.60;;;16.50;99.90;;;;;;4347486;33;20585;-68
2021/09/27 00:51:04;;;;;;;72.53;68.43;;;16.40;99.90;;;;;;4348077;33;20149;-66
2021/09/27 00:53:48;;;;;;;77.50;73.20;;;16.40;99.90;;;;;;4348516;33;20509;-67
2021/09/27 00:56:21;;;;;;;76.97;72.73;;;16.30;99.90;;;;;;4347794;33;20145;-66
2021/09/27 00:58:49;;;;;;;97.10;91.70;;;16.30;99.90;;;;;;4348488;33;20210;-68
2021/09/27 01:01:18;;;;;;;76.27;71.60;;;16.20;99.90;;;;;;4347951;33;20226;-68
2021/09/27 01:03:51;;;;;;;78.40;73.90;;;16.20;99.90;;;;;;4349442;33;20236;-67
2021/09/27 01:06:38;;;;;;;78.73;74.23;;;16.20;99.90;;;;;;4346736;33;20589;-67
2021/09/27 01:09:14;;;;;;;89.07;83.87;;;16.20;99.90;;;;;;4347012;33;20271;-67
2021/09/27 01:12:03;;;;;;;87.43;82.87;;;16.00;99.90;;;;;;4347436;33;20208;-67
2021/09/27 01:14:47;;;;;;;101.33;95.80;;;16.10;99.90;;;;;;4347010;33;20157;-69
2021/09/27 01:17:34;;;;;;;78.70;74.33;;;16.10;99.90;;;;;;4349114;33;20183;-68
2021/09/27 01:23:53;;;;;;;97.07;92.07;;;16.00;99.90;;;;;;4345102;32;20169;-67
2021/09/27 01:26:45;;;;;;;80.17;75.77;;;15.90;99.90;;;;;;4327598;33;20169;-68
2021/09/27 01:29:46;;;;;;;91.57;86.73;;;15.90;99.90;;;;;;4346757;33;20172;-69
2021/09/27 01:32:36;;;;;;;104.07;98.43;;;15.90;99.90;;;;;;4347331;33;20153;-68
2021/09/27 01:35:24;;;;;;;101.17;95.57;;;15.90;99.90;;;;;;4347787;33;20172;-68
2021/09/27 01:38:14;;;;;;;126.03;119.30;;;15.80;99.90;;;;;;4347280;33;20219;-68
2021/09/27 01:41:03;;;;;;;131.63;124.80;;;15.80;99.90;;;;;;4348061;33;20210;-68
2021/09/27 01:44:09;;;;;;;119.77;113.77;;;15.70;99.90;;;;;;4339909;33;20639;-68
2021/09/27 01:46:50;;;;;;;137.03;129.53;;;15.70;99.90;;;;;;4338295;33;20278;-68
2021/09/27 01:49:23;;;;;;;134.13;127.03;;;15.70;99.90;;;;;;4345427;33;20161;-69
2021/09/27 01:52:05;;;;;;;134.67;127.70;;;15.70;99.90;;;;;;4340629;33;20207;-69
2021/09/27 01:54:49;;;;;;;144.77;137.47;;;15.60;99.90;;;;;;4336774;33;20271;-67
2021/09/27 01:57:27;;;;;;;156.23;148.43;;;15.60;99.90;;;;;;4334688;33;20600;-69
2021/09/27 02:00:10;;;;;;;141.70;134.80;;;15.60;99.90;;;;;;4336461;32;20236;-68
2021/09/27 02:02:44;;;;;;;127.67;121.10;;;15.60;99.90;;;;;;4339251;33;20219;-66
2021/09/27 02:05:28;;;;;;;117.83;111.70;;;15.60;99.90;;;;;;4346812;33;20453;-67
2021/09/27 02:08:04;;;;;;;137.57;130.63;;;15.50;99.90;;;;;;4348638;33;20148;-68
2021/09/27 02:10:40;;;;;;;157.03;149.53;;;15.50;99.90;;;;;;4347373;33;20717;-66
2021/09/27 02:13:13;;;;;;;130.10;123.40;;;15.50;99.90;;;;;;4347303;33;20158;-66
2021/09/27 02:15:55;;;;;;;142.13;134.77;;;15.50;99.90;;;;;;4346251;33;20164;-69
2021/09/27 02:18:29;;;;;;;129.93;123.20;;;15.50;99.90;;;;;;4348050;33;20228;-68
2021/09/27 02:21:07;;;;;;;154.30;146.60;;;15.50;99.90;;;;;;4346319;33;20560;-67
2021/09/27 02:23:46;;;;;;;156.37;148.70;;;15.40;99.90;;;;;;4346016;33;20179;-67
2021/09/27 02:26:14;;;;;;;172.37;163.80;;;15.40;99.90;;;;;;4345678;33;20664;-67
2021/09/27 02:28:57;;;;;;;167.77;159.47;;;15.40;99.90;;;;;;4347008;33;20160;-66
2021/09/27 02:31:36;;;;;;;168.87;160.60;;;15.40;99.90;;;;;;4346660;33;20211;-67
2021/09/27 02:34:15;;;;;;;150.13;142.27;;;15.30;99.90;;;;;;4334879;33;20223;-67
2021/09/27 02:36:52;;;;;;;176.57;168.00;;;15.30;99.90;;;;;;4346504;33;20160;-67
2021/09/27 02:39:41;;;;;;;164.83;156.43;;;15.30;99.90;;;;;;4346582;33;20167;-68
2021/09/27 02:42:13;;;;;;;170.73;162.27;;;15.30;99.90;;;;;;4346516;33;20165;-67
2021/09/27 02:44:45;;;;;;;176.13;167.73;;;15.20;99.90;;;;;;4347668;33;20164;-67
2021/09/27 02:47:28;;;;;;;184.50;175.53;;;15.20;99.90;;;;;;4348051;33;20492;-68
2021/09/27 02:49:58;;;;;;;172.67;164.27;;;15.20;99.90;;;;;;4345009;33;20161;-67
2021/09/27 02:52:27;;;;;;;165.33;156.93;;;15.20;99.90;;;;;;4345987;33;20597;-67
2021/09/27 02:55:02;;;;;;;161.00;152.87;;;15.20;99.90;;;;;;4346125;33;20157;-67
2021/09/27 02:57:56;;;;;;;176.50;167.80;;;15.20;99.90;;;;;;4346350;33;20160;-67
2021/09/27 03:00:33;;;;;;;186.83;177.77;;;15.20;99.90;;;;;;4347113;33;20210;-66
2021/09/27 03:03:19;;;;;;;167.33;158.97;;;15.20;99.90;;;;;;4346116;33;20454;-66
2021/09/27 03:06:08;;;;;;;164.07;155.93;;;15.20;99.90;;;;;;4346148;33;20191;-69
2021/09/27 03:08:56;;;;;;;185.57;176.57;;;15.20;99.90;;;;;;4347506;33;20483;-69
2021/09/27 03:11:52;;;;;;;201.67;191.87;;;15.20;99.90;;;;;;4347667;33;20172;-68
2021/09/27 03:14:42;;;;;;;188.73;179.53;;;15.10;99.90;;;;;;4345691;33;20187;-66
2021/09/27 03:17:26;;;;;;;208.70;198.67;;;15.10;99.90;;;;;;4346074;33;20595;-67
2021/09/27 03:20:17;;;;;;;234.47;223.43;;;15.20;99.90;;;;;;4347769;33;20553;-68
2021/09/27 03:22:57;;;;;;;247.97;236.07;;;15.20;99.90;;;;;;4344821;33;20153;-68
2021/09/27 03:25:39;;;;;;;251.97;240.43;;;15.30;99.90;;;;;;4345937;33;20217;-68
2021/09/27 03:28:19;;;;;;;241.47;229.83;;;15.50;99.90;;;;;;4345865;33;20157;-66
2021/09/27 03:31:09;;;;;;;216.33;205.97;;;15.60;99.90;;;;;;4345449;33;20156;-66
2021/09/27 03:33:58;;;;;;;180.27;171.17;;;15.60;99.90;;;;;;4345714;33;20184;-66
2021/09/27 03:36:46;;;;;;;172.53;164.03;;;15.70;99.90;;;;;;4346507;33;20172;-66
2021/09/27 03:39:28;;;;;;;176.50;167.80;;;15.70;99.90;;;;;;4346103;33;20570;-66
2021/09/27 03:42:08;;;;;;;182.17;173.00;;;15.60;99.90;;;;;;4347366;33;20156;-66
2021/09/27 03:44:43;;;;;;;188.33;178.57;;;15.60;99.90;;;;;;4342383;33;20574;-67
2021/09/27 03:47:24;;;;;;;185.07;176.03;;;15.60;99.90;;;;;;4330949;33;20148;-67
2021/09/27 03:49:59;;;;;;;181.10;172.17;;;15.70;99.90;;;;;;4331093;33;20160;-68
2021/09/27 03:52:34;;;;;;;171.87;163.23;;;15.80;99.90;;;;;;4337374;33;20182;-67
2021/09/27 03:55:10;;;;;;;176.53;167.67;;;15.70;99.90;;;;;;4345242;33;20491;-68
2021/09/27 03:57:46;;;;;;;164.67;156.10;;;15.80;99.90;;;;;;4345354;33;20161;-69
2021/09/27 04:00:22;;;;;;;149.03;141.17;;;15.90;99.90;;;;;;4346059;33;20528;-67
2021/09/27 04:03:07;;;;;;;140.83;132.37;;;15.80;99.90;;;;;;4345312;33;20234;-67
2021/09/27 04:05:49;;;;;;;136.90;129.80;;;15.70;99.90;;;;;;4344991;33;20153;-67
2021/09/27 04:08:30;;;;;;;158.57;150.60;;;15.60;99.90;;;;;;4345542;33;20635;-67
2021/09/27 04:11:13;;;;;;;160.00;151.90;;;15.50;99.90;;;;;;4344720;33;20207;-67
2021/09/27 04:13:52;;;;;;;156.20;148.00;;;15.40;99.90;;;;;;4333921;33;20600;-69
2021/09/27 04:16:33;;;;;;;170.27;161.80;;;15.40;99.90;;;;;;4345874;33;20243;-68
2021/09/27 04:19:19;;;;;;;165.13;156.43;;;15.30;99.90;;;;;;4345326;33;20176;-66
2021/09/27 04:21:59;;;;;;;174.83;165.87;;;15.30;99.90;;;;;;4345915;33;20565;-67
2021/09/27 04:24:49;;;;;;;191.60;181.83;;;15.20;99.90;;;;;;4345358;33;20192;-67
2021/09/27 04:30:30;;;;;;;198.60;188.33;;;15.10;99.90;;;;;;4346273;33;20231;-66
2021/09/27 04:33:28;;;;;;;212.53;201.73;;;15.10;99.90;;;;;;4344882;33;20172;-68
2021/09/27 04:36:14;;;;;;;225.00;214.10;;;15.10;99.90;;;;;;4282684;33;20197;-67
2021/09/27 04:38:41;;;;;;;220.20;209.33;;;15.10;99.90;;;;;;4284443;33;20170;-66
2021/09/27 04:41:36;;;;;;;225.00;214.03;;;15.00;99.90;;;;;;4284546;33;20430;-67
2021/09/27 04:44:15;;;;;;;239.23;227.73;;;15.10;99.90;;;;;;4270898;33;20203;-67
2021/09/27 04:46:58;;;;;;;241.13;228.83;;;15.10;99.90;;;;;;4278479;33;20569;-67
2021/09/27 04:49:46;;;;;;;230.43;219.20;;;15.10;99.90;;;;;;4285680;33;20610;-68
2021/09/27 04:52:22;;;;;;;228.47;216.93;;;15.20;99.90;;;;;;4285043;33;20174;-68
2021/09/27 04:55:12;;;;;;;206.50;196.20;;;15.20;99.90;;;;;;4285353;33;20182;-69
2021/09/27 04:58:02;;;;;;;211.17;200.60;;;15.20;99.90;;;;;;4285151;33;20245;-68
2021/09/27 05:00:40;;;;;;;200.40;190.03;;;15.20;99.90;;;;;;4285342;33;20206;-68
2021/09/27 05:03:45;;;;;;;225.40;214.40;;;15.30;99.90;;;;;;4284628;33;20181;-69
2021/09/27 05:06:47;;;;;;;234.13;222.53;;;15.30;99.90;;;;;;4288081;33;20506;-69
2021/09/27 05:09:32;;;;;;;207.67;197.00;;;15.30;99.90;;;;;;4243955;33;20193;-68
2021/09/27 05:12:31;;;;;;;216.30;205.83;;;15.30;99.90;;;;;;4257428;33;20239;-68
2021/09/27 05:15:24;;;;;;;213.17;202.03;;;15.30;99.90;;;;;;4276579;33;20205;-69
2021/09/27 05:18:23;;;;;;;230.57;219.27;;;15.30;99.90;;;;;;4245156;33;20171;-66
2021/09/27 05:21:33;;;;;;;223.63;212.57;;;15.30;99.90;;;;;;4251481;33;20679;-66
2021/09/27 05:24:27;;;;;;;205.70;195.33;;;15.20;99.90;;;;;;4247200;33;20308;-67
2021/09/27 05:27:10;;;;;;;221.73;210.53;;;15.10;99.90;;;;;;4247712;33;20187;-67
2021/09/27 05:29:54;;;;;;;228.20;217.17;;;15.10;99.90;;;;;;4253927;33;20762;-67
2021/09/27 06:16:08;;;;;;;225.40;214.17;;;15.60;99.90;;;;;;4137503;34;20201;-66
2021/09/27 06:19:05;;;;;;;232.33;221.50;;;15.70;99.90;;;;;;4176814;34;20172;-66
2021/09/27 06:21:54;;;;;;;205.53;195.10;;;15.80;99.90;;;;;;4212568;34;20635;-66
2021/09/27 06:24:44;;;;;;;216.00;205.13;;;15.90;99.90;;;;;;4211568;34;20647;-66
2021/09/27 06:27:27;;;;;;;224.23;213.70;;;16.00;99.90;;;;;;4212856;34;20183;-68
2021/09/27 06:30:08;;;;;;;202.30;192.20;;;16.10;99.90;;;;;;4212633;34;20570;-67
2021/09/27 06:32:50;;;;;;;179.00;170.20;;;16.30;99.90;;;;;;4208269;34;20172;-67
2021/09/27 06:35:23;;;;;;;159.90;151.83;;;16.50;99.90;;;;;;4207443;34;20164;-67
2021/09/27 06:37:50;;;;;;;163.83;155.70;;;16.60;99.90;;;;;;4206132;34;20343;-65
2021/09/27 06:40:44;;;;;;;154.87;146.80;;;16.60;99.90;;;;;;4210528;34;20176;-68
2021/09/27 06:43:21;;;;;;;148.77;140.87;;;16.70;99.90;;;;;;4238360;33;20305;-66
2021/09/27 06:45:49;;;;;;;140.97;133.57;;;16.70;99.90;;;;;;4237741;33;20202;-66
2021/09/27 06:48:19;;;;;;;143.07;135.70;;;16.70;99.90;;;;;;4236279;33;20179;-66
2021/09/27 06:50:48;;;;;;;137.77;130.67;;;16.80;99.90;;;;;;4237531;33;20207;-66
2021/09/27 06:53:24;;;;;;;130.83;124.03;;;16.80;99.90;;;;;;4233197;33;20168;-66
2021/09/27 06:58:36;;;;;;;127.20;120.53;;;17.00;99.90;;;;;;4233712;33;20326;-66
2021/09/27 07:01:15;;;;;;;113.83;107.77;;;17.20;99.90;;;;;;4235389;33;20159;-66
2021/09/27 07:03:54;;;;;;;115.50;109.33;;;17.30;99.90;;;;;;4234550;33;20247;-66
2021/09/27 07:06:27;;;;;;;111.67;105.33;;;17.40;99.90;;;;;;4233930;33;20172;-66
2021/09/27 07:08:58;;;;;;;118.80;112.23;;;17.40;99.90;;;;;;4236409;33;20199;-66
2021/09/27 07:11:29;;;;;;;108.27;102.37;;;17.50;99.90;;;;;;4236938;33;20176;-67
2021/09/27 07:14:02;;;;;;;103.27;97.73;;;17.50;99.90;;;;;;4234507;33;20236;-66
2021/09/27 07:16:29;;;;;;;97.50;92.13;;;17.60;99.90;;;;;;4236119;33;20597;-66
2021/09/27 07:18:57;;;;;;;97.23;91.80;;;17.70;99.90;;;;;;4233151;33;20163;-66
2021/09/27 07:21:24;;;;;;;94.00;88.77;;;17.70;99.90;;;;;;4236444;33;20330;-65
2021/09/27 07:23:51;;;;;;;88.00;82.90;;;17.70;99.90;;;;;;4234277;33;20567;-66
2021/09/27 07:26:20;;;;;;;92.67;87.33;;;17.80;99.90;;;;;;4235689;33;20171;-67
2021/09/27 07:28:52;;;;;;;76.07;71.47;;;17.80;99.90;;;;;;4235300;33;20215;-68
2021/09/27 07:31:20;;;;;;;79.37;74.60;;;17.80;99.90;;;;;;4234894;33;20191;-67
2021/09/27 07:34:00;;;;;;;77.53;72.87;;;18.00;99.90;;;;;;4236083;33;20171;-67
2021/09/27 07:36:36;;;;;;;71.33;67.07;;;18.10;99.90;;;;;;4235517;33;20239;-66
2021/09/27 07:39:05;;;;;;;67.83;63.60;;;18.10;99.90;;;;;;4235747;33;20179;-66
2021/09/27 07:41:38;;;;;;;78.17;73.50;;;18.20;99.90;;;;;;4234328;33;20164;-66
2021/09/27 07:44:05;;;;;;;77.13;72.43;;;18.40;99.90;;;;;;4234483;33;20244;-67
2021/09/27 07:46:42;;;;;;;67.60;63.40;;;18.50;99.90;;;;;;4234971;33;20189;-66
2021/09/27 07:49:15;;;;;;;71.47;66.90;;;18.60;99.90;;;;;;4234347;33;20186;-67
2021/09/27 07:51:44;;;;;;;75.37;70.93;;;18.60;99.90;;;;;;4234762;33;20187;-67
2021/09/27 07:54:19;;;;;;;69.83;65.83;;;18.60;99.90;;;;;;4235737;33;20172;-69
2021/09/27 07:56:49;;;;;;;64.77;60.77;;;18.60;99.90;;;;;;4234380;33;20181;-67
2021/09/27 07:59:16;;;;;;;64.67;60.77;;;18.70;99.90;;;;;;4232393;33;20231;-67
2021/09/27 08:01:43;;;;;;;71.60;67.27;;;18.70;99.90;;;;;;4238246;33;20182;-66
2021/09/27 08:04:15;;;;;;;67.17;63.27;;;18.80;99.90;;;;;;4243362;33;20155;-67
2021/09/27 08:06:47;;;;;;;66.27;62.17;;;18.80;99.90;;;;;;4243620;33;20189;-66
2021/09/27 08:09:32;;;;;;;67.87;63.27;;;18.80;99.90;;;;;;4242294;33;20163;-67
2021/09/27 08:12:04;;;;;;;64.10;60.17;;;18.90;99.90;;;;;;4228217;34;20171;-67
2021/09/27 08:14:35;;;;;;;60.97;56.97;;;18.90;99.90;;;;;;4228489;34;20223;-67
2021/09/27 08:17:03;;;;;;;63.87;59.90;;;18.90;99.90;;;;;;4230024;34;20222;-68
2021/09/27 08:19:31;;;;;;;59.87;56.17;;;19.00;99.90;;;;;;4228653;34;20203;-66
2021/09/27 08:21:58;;;;;;;65.40;61.23;;;19.10;99.90;;;;;;4228224;34;20620;-66
2021/09/27 08:24:29;;;;;;;58.40;55.03;;;19.40;99.90;;;;;;4228468;34;20203;-66
2021/09/27 08:27:04;;;;;;;61.67;57.97;;;19.50;99.90;;;;;;4229208;33;20225;-67
2021/09/27 08:29:31;;;;;;;61.77;58.03;;;19.60;99.90;;;;;;4228454;34;20166;-67
2021/09/27 08:32:00;;;;;;;59.17;55.77;;;19.50;99.90;;;;;;4229879;34;20515;-67
2021/09/27 08:34:27;;;;;;;61.27;57.50;;;19.50;99.90;;;;;;4228740;34;20565;-67
2021/09/27 08:36:56;;;;;;;61.67;57.93;;;19.40;99.90;;;;;;4228554;34;20216;-68
2021/09/27 08:39:34;;;;;;;61.53;57.93;;;19.30;99.90;;;;;;4230500;33;20224;-68
2021/09/27 08:42:10;;;;;;;55.23;51.60;;;19.30;99.90;;;;;;4231130;34;20189;-67
2021/09/27 08:45:11;;;;;;;59.37;55.67;;;19.20;99.90;;;;;;4222812;34;20186;-66
2021/09/27 08:47:46;;;;;;;59.97;55.60;;;19.20;99.90;;;;;;4211201;34;20648;-68
2021/09/27 08:50:27;;;;;;;58.80;55.30;;;19.10;99.90;;;;;;4225604;33;20219;-68
2021/09/27 08:52:59;;;;;;;55.53;52.23;;;19.20;99.90;;;;;;4229592;33;20164;-68
2021/09/27 08:55:37;;;;;;;55.17;51.97;;;19.30;99.90;;;;;;4230110;33;20535;-67
2021/09/27 08:58:17;;;;;;;59.03;55.43;;;19.40;99.90;;;;;;4216894;34;20178;-66
2021/09/27 09:00:49;;;;;;;62.20;58.13;;;19.40;99.90;;;;;;4216842;34;20159;-66
2021/09/27 09:03:25;;;;;;;55.57;52.17;;;19.50;99.90;;;;;;4216740;34;20164;-65
2021/09/27 09:06:05;;;;;;;55.33;52.17;;;19.30;99.90;;;;;;4216954;34;20215;-66
2021/09/27 09:08:43;;;;;;;49.60;46.47;;;19.20;99.90;;;;;;4216852;34;20180;-66
2021/09/27 09:11:29;;;;;;;56.00;52.53;;;19.20;99.90;;;;;;4218357;34;20239;-66
2021/09/27 09:14:04;;;;;;;53.43;50.27;;;19.30;99.90;;;;;;4216818;34;20160;-67
2021/09/27 09:16:43;;;;;;;48.83;46.03;;;19.60;99.90;;;;;;4216563;34;20191;-68
2021/09/27 09:19:15;;;;;;;53.53;50.47;;;20.30;99.90;;;;;;4218189;34;20224;-68
2021/09/27 09:21:51;;;;;;;47.80;45.00;;;20.90;99.90;;;;;;4218351;34;20155;-67
2021/09/27 09:24:26;;;;;;;47.07;44.07;;;21.20;99.90;;;;;;4216464;34;20230;-67
2021/09/27 09:27:01;;;;;;;49.90;46.97;;;21.30;99.90;;;;;;4216671;34;20212;-67
2021/09/27 09:29:35;;;;;;;50.50;47.67;;;21.20;99.90;;;;;;4216520;34;20224;-67
2021/09/27 09:32:16;;;;;;;50.33;47.53;;;21.20;99.90;;;;;;4217984;34;20167;-68
2021/09/27 09:34:48;;;;;;;49.07;46.23;;;21.20;99.90;;;;;;4216398;34;20179;-67
2021/09/27 09:37:30;;;;;;;46.43;43.80;;;21.10;99.90;;;;;;4217965;34;20597;-67
2021/09/27 09:40:18;;;;;;;46.47;43.83;;;21.20;99.90;;;;;;4216287;34;20180;-67
2021/09/27 09:42:57;;;;;;;52.00;48.97;;;21.60;99.90;;;;;;4216352;34;20220;-66
2021/09/27 09:45:27;;;;;;;45.97;43.57;;;21.40;99.90;;;;;;4218024;34;20194;-66
2021/09/27 09:48:13;;;;;;;52.47;49.53;;;21.20;99.90;;;;;;4216207;34;20208;-69
2021/09/27 09:50:45;;;;;;;51.90;49.07;;;20.90;99.90;;;;;;4228679;33;20738;-67
2021/09/27 09:53:36;;;;;;;51.03;47.80;;;20.60;99.90;;;;;;4285156;33;20573;-71
2021/09/27 09:56:22;;;;;;;50.83;48.23;;;20.60;99.90;;;;;;4258295;33;20239;-67
2021/09/27 09:58:52;;;;;;;51.27;48.40;;;20.50;99.90;;;;;;4258392;33;20163;-68
2021/09/27 10:01:23;;;;;;;51.23;48.47;;;20.60;99.90;;;;;;4259721;33;20211;-67
2021/09/27 10:04:03;;;;;;;50.47;47.90;;;20.60;99.90;;;;;;4260053;33;20198;-69
2021/09/27 10:06:47;;;;;;;48.53;45.70;;;20.60;99.90;;;;;;4258655;33;20163;-68
2021/09/27 10:09:30;;;;;;;51.13;48.47;;;20.50;99.90;;;;;;4265896;33;20620;-69
2021/09/27 10:12:07;;;;;;;44.77;42.23;;;20.40;99.90;;;;;;4272247;33;20154;-68
2021/09/27 10:14:44;;;;;;;47.07;44.27;;;20.30;99.90;;;;;;4272076;33;20579;-68
2021/09/27 10:17:28;;;;;;;38.67;36.57;;;20.30;99.90;;;;;;4272161;33;20159;-68
2021/09/27 10:20:08;;;;;;;41.93;39.37;;;20.40;99.90;;;;;;4294749;33;20678;-68
2021/09/27 10:22:41;;;;;;;38.27;35.67;;;20.50;99.90;;;;;;4315306;33;20499;-68
2021/09/27 10:25:29;;;;;;;42.60;39.90;;;20.60;99.90;;;;;;4315228;33;20624;-68
2021/09/27 10:28:01;;;;;;;37.23;35.17;;;20.70;99.90;;;;;;4316953;33;20192;-68
2021/09/27 10:30:37;;;;;;;37.07;34.87;;;20.80;99.90;;;;;;4316933;33;20189;-68
2021/09/27 10:33:14;;;;;;;41.00;38.67;;;20.80;99.90;;;;;;4331187;33;20156;-70
2021/09/27 10:35:52;;;;;;;38.73;36.43;;;20.80;99.90;;;;;;4346670;33;20206;-68
2021/09/27 10:38:28;;;;;;;39.70;37.70;;;20.80;99.90;;;;;;4347741;33;20473;-68
2021/09/27 10:41:13;;;;;;;41.33;39.23;;;21.00;99.90;;;;;;4347703;33;20153;-69
2021/09/27 10:43:44;;;;;;;40.83;38.73;;;21.10;99.90;;;;;;4346851;33;20149;-68
2021/09/27 10:46:21;;;;;;;40.30;38.07;;;20.90;99.90;;;;;;4346522;33;20233;-66
2021/09/27 10:48:53;;;;;;;38.53;36.33;;;20.80;99.90;;;;;;4347375;33;20152;-69
2021/09/27 10:51:30;;;;;;;35.17;33.37;;;20.80;99.90;;;;;;4346378;33;20173;-68
2021/09/27 10:54:05;;;;;;;39.10;36.97;;;20.90;99.90;;;;;;4346493;33;20156;-69
2021/09/27 10:56:37;;;;;;;39.93;37.83;;;20.90;99.90;;;;;;4347387;33;20202;-69
2021/09/27 10:59:07;;;;;;;38.53;36.53;;;20.90;99.90;;;;;;4347368;33;20168;-70
2021/09/27 11:01:44;;;;;;;40.03;37.73;;;20.90;99.90;;;;;;4345513;33;20172;-68
2021/09/27 11:04:20;;;;;;;35.67;33.87;;;20.90;99.90;;;;;;4347446;33;20184;-69
2021/09/27 11:06:58;;;;;;;38.90;36.90;;;20.90;99.90;;;;;;4346174;33;20491;-69
2021/09/27 11:09:49;;;;;;;35.80;33.80;;;21.00;99.90;;;;;;4345938;33;20220;-70
2021/09/27 11:12:28;;;;;;;36.70;34.70;;;21.00;99.90;;;;;;4347775;33;20211;-70
2021/09/27 11:15:05;;;;;;;42.27;40.03;;;21.10;99.90;;;;;;4347820;33;20152;-69
2021/09/27 11:17:46;;;;;;;35.23;33.53;;;20.90;99.90;;;;;;4345995;33;20192;-69
2021/09/27 11:20:41;;;;;;;39.90;37.57;;;20.80;99.90;;;;;;4345890;33;20164;-68
2021/09/27 11:23:25;;;;;;;36.20;34.27;;;20.70;99.90;;;;;;4347689;33;20153;-68
2021/09/27 11:26:22;;;;;;;33.57;31.67;;;20.60;99.90;;;;;;4347421;33;20191;-67
2021/09/27 11:28:52;;;;;;;35.03;33.03;;;20.50;99.90;;;;;;4342978;33;20215;-66
2021/09/27 11:31:37;;;;;;;35.50;33.60;;;20.40;99.90;;;;;;4347572;33;20153;-67
2021/09/27 11:34:31;;;;;;;34.47;32.57;;;20.50;99.90;;;;;;4346930;33;20154;-68
2021/09/27 11:37:14;;;;;;;32.33;30.60;;;20.60;99.90;;;;;;4345791;33;20188;-68
2021/09/27 11:39:45;;;;;;;30.77;28.87;;;20.80;99.90;;;;;;4345847;33;20167;-69
2021/09/27 11:42:48;;;;;;;35.70;33.87;;;21.00;99.90;;;;;;4346484;33;20189;-67
2021/09/27 11:45:53;;;;;;;33.37;31.47;;;21.30;99.90;;;;;;4347208;33;20152;-70
2021/09/27 11:48:50;;;;;;;31.17;29.47;;;21.70;99.90;;;;;;4346246;33;20163;-66
2021/09/27 11:51:37;;;;;;;28.67;27.17;;;21.90;99.90;;;;;;4345881;33;20153;-67
2021/09/27 11:54:25;;;;;;;30.63;29.07;;;22.00;99.90;;;;;;4346576;33;20227;-67
2021/09/27 11:57:13;;;;;;;34.37;32.47;;;22.10;99.90;;;;;;4345645;33;20219;-67
2021/09/27 11:59:59;;;;;;;29.00;27.30;;;22.10;99.90;;;;;;4343557;33;20510;-67
2021/09/27 12:02:43;;;;;;;31.07;29.47;;;22.20;99.90;;;;;;4345575;33;20176;-68
2021/09/27 12:05:42;;;;;;;27.27;25.97;;;22.20;99.90;;;;;;4346034;33;20144;-67
2021/09/27 12:08:17;;;;;;;27.87;26.30;;;22.30;99.90;;;;;;4346765;33;20564;-67
2021/09/27 12:10:53;;;;;;;28.73;27.03;;;22.40;99.90;;;;;;4346850;33;20541;-67
2021/09/27 12:13:26;;;;;;;29.37;27.77;;;22.90;99.90;;;;;;4346693;33;20210;-68
2021/09/27 12:16:01;;;;;;;28.70;27.30;;;23.00;99.90;;;;;;4348706;33;20172;-69
2021/09/27 12:18:43;;;;;;;28.33;27.00;;;22.70;99.90;;;;;;4348342;33;20148;-68
2021/09/27 12:21:20;;;;;;;26.47;25.07;;;22.40;99.90;;;;;;4348504;33;20149;-67
2021/09/27 12:23:53;;;;;;;30.57;28.93;;;22.10;99.90;;;;;;4348381;33;20153;-67
2021/09/27 12:26:34;;;;;;;26.93;25.67;;;22.10;99.90;;;;;;4349427;33;20150;-66
2021/09/27 12:29:05;;;;;;;30.30;28.70;;;22.20;99.90;;;;;;4348486;33;20149;-69
2021/09/27 12:31:32;;;;;;;26.90;25.30;;;22.10;99.90;;;;;;4349300;33;20218;-69
2021/09/27 12:34:09;;;;;;;24.00;22.80;;;21.80;99.90;;;;;;4348658;33;20153;-69
2021/09/27 12:36:37;;;;;;;22.47;21.27;;;21.30;99.90;;;;;;4349532;33;20483;-68
2021/09/27 12:39:07;;;;;;;24.57;23.47;;;20.90;99.90;;;;;;4347782;33;20604;-68
2021/09/27 12:41:43;;;;;;;23.37;22.17;;;20.60;99.90;;;;;;4348365;33;20164;-68
2021/09/27 12:44:13;;;;;;;23.20;22.00;;;20.40;99.90;;;;;;4347714;33;20171;-69
2021/09/27 12:46:43;;;;;;;24.60;22.97;;;20.30;99.90;;;;;;4345921;33;20153;-68
2021/09/27 12:49:13;;;;;;;21.83;20.73;;;20.30;99.90;;;;;;4347301;33;20217;-69
2021/09/27 12:51:47;;;;;;;23.43;21.97;;;20.30;99.90;;;;;;4346828;33;20156;-70
2021/09/27 12:54:29;;;;;;;24.17;23.03;;;20.20;99.90;;;;;;4347485;33;20157;-66
2021/09/27 12:56:59;;;;;;;24.80;23.40;;;19.90;99.90;;;;;;4349213;33;20157;-67
2021/09/27 12:59:35;;;;;;;23.33;22.13;;;19.40;99.90;;;;;;4267150;33;2696303;-66
2021/09/27 13:02:11;;;;;;;23.50;22.40;;;19.10;99.90;;;;;;4348028;33;20752;-68
2021/09/27 13:04:50;;;;;;;27.43;26.03;;;18.90;99.90;;;;;;4348019;33;20176;-66
2021/09/27 13:07:25;;;;;;;33.77;31.80;;;18.70;99.90;;;;;;4347925;33;20153;-66
2021/09/27 13:10:09;;;;;;;29.73;28.33;;;18.60;99.90;;;;;;4348443;33;20520;-67
2021/09/27 13:12:41;;;;;;;35.43;33.73;;;18.50;99.90;;;;;;4347570;33;20578;-66
2021/09/27 13:15:16;;;;;;;29.07;27.47;;;18.40;99.90;;;;;;4348826;33;20149;-66
2021/09/27 13:18:04;;;;;;;30.17;28.57;;;18.40;99.90;;;;;;4347715;33;20222;-68
2021/09/27 13:20:35;;;;;;;33.43;31.63;;;18.30;99.90;;;;;;4347749;33;20149;-66
2021/09/27 13:23:08;;;;;;;30.37;28.67;;;18.20;99.90;;;;;;4349333;33;20191;-66
2021/09/27 13:25:46;;;;;;;30.83;29.10;;;18.20;99.90;;;;;;4348346;33;20169;-66
2021/09/27 13:28:25;;;;;;;34.43;32.67;;;18.10;99.90;;;;;;4347023;33;20157;-66
2021/09/27 13:31:06;;;;;;;42.93;40.57;;;18.10;99.90;;;;;;4347529;33;20164;-66
2021/09/27 13:33:38;;;;;;;40.17;38.23;;;18.20;99.90;;;;;;4347744;33;20614;-66
2021/09/27 13:36:09;;;;;;;45.27;43.07;;;18.10;99.90;;;;;;4347632;33;20216;-68
2021/09/27 13:38:42;;;;;;;47.43;45.13;;;18.10;99.90;;;;;;4346319;33;20165;-66
2021/09/27 13:41:17;;;;;;;67.40;63.97;;;18.00;99.90;;;;;;4347172;33;20481;-67
2021/09/27 13:43:49;;;;;;;71.97;68.60;;;17.80;99.90;;;;;;4346967;33;20190;-67
2021/09/27 13:46:19;;;;;;;81.60;77.97;;;17.60;99.90;;;;;;4344590;33;20280;-67
2021/09/27 13:48:46;;;;;;;102.73;97.90;;;17.60;99.90;;;;;;4346721;33;20192;-69
2021/09/27 13:51:14;;;;;;;105.47;100.73;;;17.50;99.90;;;;;;4345240;33;20161;-67
2021/09/27 13:53:46;;;;;;;122.23;116.83;;;17.50;99.90;;;;;;4345522;33;20613;-67
2021/09/27 13:56:18;;;;;;;127.60;121.87;;;17.60;99.90;;;;;;4345462;33;20294;-67
2021/09/27 13:58:46;;;;;;;131.27;125.63;;;17.70;99.90;;;;;;4344492;33;20172;-66
2021/09/27 14:01:14;;;;;;;142.90;136.40;;;17.70;99.90;;;;;;4344102;33;20184;-67
2021/09/27 14:03:46;;;;;;;138.20;132.33;;;17.60;99.90;;;;;;4343217;33;20179;-68
2021/09/27 14:06:14;;;;;;;132.00;125.97;;;17.60;99.90;;;;;;4345416;33;20219;-67
2021/09/27 14:08:46;;;;;;;141.17;134.97;;;17.50;99.90;;;;;;4346297;33;20165;-69
2021/09/27 14:11:13;;;;;;;147.17;140.93;;;17.50;99.90;;;;;;4346299;33;20153;-67